sensor_id;sensor_type;location;lat;lon;timestamp;pressure;altitude;pressure_sealevel;temperature;humidity
72124;BME280;63818;37.134;-8.548;2024-01-27T00:01:36;102361.9;;;15.5;73.0
72124;BME280;63818;37.134;-8.548;2024-01-27T00:06:24;102359.0;;;15.4;73.1
72124;BME280;63818;37.134;-8.548;2024-01-27T00:11:12;102354.4;;;15.4;72.6
72124;BME280;63818;37.134;-8.548;2024-01-27T00:16:04;102351.4;;;15.5;72.4
72124;BME280;63818;37.134;-8.548;2024-01-27T00:20:55;102347.9;;;15.4;72.2
72124;BME280;63818;37.134;-8.548;2024-01-27T00:25:42;102337.9;;;15.4;71.4
72124;BME280;63818;37.134;-8.548;2024-01-27T00:30:30;102329.8;;;15.4;71.5
72124;BME280;63818;37.134;-8.548;2024-01-27T00:35:21;102331.7;;;15.4;70.9
72124;BME280;63818;37.134;-8.548;2024-01-27T00:49:58;102312.3;;;15.3;71.0
72124;BME280;63818;37.134;-8.548;2024-01-27T00:54:51;102306.7;;;15.3;71.6
72124;BME280;63818;37.134;-8.548;2024-01-27T00:59:39;102302.7;;;15.3;71.7
72124;BME280;63818;37.134;-8.548;2024-01-27T01:04:27;102295.1;;;15.3;71.7
72124;BME280;63818;37.134;-8.548;2024-01-27T01:09:15;102296.7;;;15.3;71.5
72124;BME280;63818;37.134;-8.548;2024-01-27T01:14:05;102299.4;;;15.3;71.4
72124;BME280;63818;37.134;-8.548;2024-01-27T01:18:56;102294.4;;;15.2;71.2
72124;BME280;63818;37.134;-8.548;2024-01-27T01:23:44;102289.9;;;15.2;71.4
72124;BME280;63818;37.134;-8.548;2024-01-27T01:28:36;102285.7;;;15.1;71.5
72124;BME280;63818;37.134;-8.548;2024-01-27T01:33:24;102284.1;;;15.1;71.6
72124;BME280;63818;37.134;-8.548;2024-01-27T01:38:12;102281.5;;;15.0;72.3
72124;BME280;63818;37.134;-8.548;2024-01-27T01:43:04;102285.9;;;15.0;72.9
72124;BME280;63818;37.134;-8.548;2024-01-27T01:47:56;102292.8;;;14.9;73.7
72124;BME280;63818;37.134;-8.548;2024-01-27T01:52:44;102288.4;;;14.9;74.4
72124;BME280;63818;37.134;-8.548;2024-01-27T01:57:33;102288.2;;;14.9;74.2
72124;BME280;63818;37.134;-8.548;2024-01-27T02:02:21;102292.8;;;14.9;74.4
72124;BME280;63818;37.134;-8.548;2024-01-27T02:07:11;102304.0;;;14.9;74.4
72124;BME280;63818;37.134;-8.548;2024-01-27T02:12:01;102298.0;;;14.9;74.4
72124;BME280;63818;37.134;-8.548;2024-01-27T02:16:49;102301.0;;;14.9;75.0
72124;BME280;63818;37.134;-8.548;2024-01-27T02:21:36;102297.0;;;14.8;75.9
72124;BME280;63818;37.134;-8.548;2024-01-27T02:26:24;102295.7;;;14.8;76.2
72124;BME280;63818;37.134;-8.548;2024-01-27T02:31:15;102302.5;;;14.8;76.5
72124;BME280;63818;37.134;-8.548;2024-01-27T02:36:03;102310.1;;;14.8;76.5
72124;BME280;63818;37.134;-8.548;2024-01-27T02:40:52;102295.0;;;14.8;76.7
72124;BME280;63818;37.134;-8.548;2024-01-27T02:45:41;102303.4;;;14.7;77.2
72124;BME280;63818;37.134;-8.548;2024-01-27T02:50:29;102301.8;;;14.7;77.0
72124;BME280;63818;37.134;-8.548;2024-01-27T02:55:18;102303.1;;;14.8;77.2
72124;BME280;63818;37.134;-8.548;2024-01-27T03:00:14;102296.4;;;14.7;76.9
72124;BME280;63818;37.134;-8.548;2024-01-27T03:05:03;102296.2;;;14.7;76.0
72124;BME280;63818;37.134;-8.548;2024-01-27T03:09:53;102290.6;;;14.6;75.8
72124;BME280;63818;37.134;-8.548;2024-01-27T03:14:45;102282.9;;;14.5;74.7
72124;BME280;63818;37.134;-8.548;2024-01-27T03:19:33;102272.8;;;14.4;74.4
72124;BME280;63818;37.134;-8.548;2024-01-27T03:24:21;102268.7;;;14.4;74.8
72124;BME280;63818;37.134;-8.548;2024-01-27T03:29:09;102256.8;;;14.4;75.0
72124;BME280;63818;37.134;-8.548;2024-01-27T03:33:59;102254.4;;;14.4;75.1
72124;BME280;63818;37.134;-8.548;2024-01-27T03:38:47;102246.6;;;14.4;74.5
72124;BME280;63818;37.134;-8.548;2024-01-27T03:43:42;102240.7;;;14.4;74.8
72124;BME280;63818;37.134;-8.548;2024-01-27T03:48:30;102233.7;;;14.4;74.6
72124;BME280;63818;37.134;-8.548;2024-01-27T03:53:18;102238.3;;;14.4;75.0
72124;BME280;63818;37.134;-8.548;2024-01-27T03:58:08;102236.6;;;14.4;75.1
72124;BME280;63818;37.134;-8.548;2024-01-27T04:02:56;102232.7;;;14.3;75.4
72124;BME280;63818;37.134;-8.548;2024-01-27T04:07:44;102231.9;;;14.3;75.4
72124;BME280;63818;37.134;-8.548;2024-01-27T04:12:34;102226.0;;;14.3;75.7
72124;BME280;63818;37.134;-8.548;2024-01-27T04:17:23;102221.5;;;14.2;75.8
72124;BME280;63818;37.134;-8.548;2024-01-27T04:22:13;102222.6;;;14.1;75.9
72124;BME280;63818;37.134;-8.548;2024-01-27T04:27:04;102221.3;;;14.2;75.7
72124;BME280;63818;37.134;-8.548;2024-01-27T04:31:52;102215.3;;;14.2;75.6
72124;BME280;63818;37.134;-8.548;2024-01-27T04:36:39;102212.9;;;14.1;75.4
72124;BME280;63818;37.134;-8.548;2024-01-27T04:41:30;102210.0;;;14.1;75.4
72124;BME280;63818;37.134;-8.548;2024-01-27T04:46:22;102204.6;;;14.1;75.4
72124;BME280;63818;37.134;-8.548;2024-01-27T04:51:11;102206.2;;;14.1;75.2
72124;BME280;63818;37.134;-8.548;2024-01-27T04:55:58;102204.4;;;14.1;75.3
72124;BME280;63818;37.134;-8.548;2024-01-27T05:00:46;102195.5;;;14.1;74.7
72124;BME280;63818;37.134;-8.548;2024-01-27T05:05:35;102209.0;;;14.1;75.0
72124;BME280;63818;37.134;-8.548;2024-01-27T05:10:25;102216.3;;;14.1;74.9
72124;BME280;63818;37.134;-8.548;2024-01-27T05:15:15;102207.9;;;14.1;74.6
72124;BME280;63818;37.134;-8.548;2024-01-27T05:20:04;102204.2;;;14.0;74.6
72124;BME280;63818;37.134;-8.548;2024-01-27T05:24:55;102213.9;;;14.1;74.6
72124;BME280;63818;37.134;-8.548;2024-01-27T05:29:42;102212.6;;;14.0;74.9
72124;BME280;63818;37.134;-8.548;2024-01-27T05:34:30;102214.8;;;13.9;74.6
72124;BME280;63818;37.134;-8.548;2024-01-27T05:39:21;102218.4;;;13.9;75.6
72124;BME280;63818;37.134;-8.548;2024-01-27T05:44:12;102230.0;;;13.9;75.3
72124;BME280;63818;37.134;-8.548;2024-01-27T05:49:00;102231.4;;;13.9;75.1
72124;BME280;63818;37.134;-8.548;2024-01-27T05:53:48;102223.0;;;13.9;75.3
72124;BME280;63818;37.134;-8.548;2024-01-27T05:58:36;102223.3;;;13.9;75.5
72124;BME280;63818;37.134;-8.548;2024-01-27T06:03:24;102227.3;;;13.9;75.1
72124;BME280;63818;37.134;-8.548;2024-01-27T06:08:12;102229.2;;;13.9;75.4
72124;BME280;63818;37.134;-8.548;2024-01-27T06:13:01;102234.1;;;13.9;75.2
72124;BME280;63818;37.134;-8.548;2024-01-27T06:17:52;102236.3;;;13.9;74.9
72124;BME280;63818;37.134;-8.548;2024-01-27T06:22:40;102240.6;;;13.9;75.2
72124;BME280;63818;37.134;-8.548;2024-01-27T06:27:32;102246.8;;;13.9;75.4
72124;BME280;63818;37.134;-8.548;2024-01-27T06:32:20;102246.6;;;13.8;75.1
72124;BME280;63818;37.134;-8.548;2024-01-27T06:37:13;102253.7;;;13.8;75.6
72124;BME280;63818;37.134;-8.548;2024-01-27T06:42:01;102252.1;;;13.8;75.3
72124;BME280;63818;37.134;-8.548;2024-01-27T06:46:50;102260.2;;;13.8;75.6
72124;BME280;63818;37.134;-8.548;2024-01-27T06:51:38;102258.0;;;13.8;75.6
72124;BME280;63818;37.134;-8.548;2024-01-27T06:56:28;102258.4;;;13.8;75.6
72124;BME280;63818;37.134;-8.548;2024-01-27T07:01:18;102267.0;;;13.7;75.7
72124;BME280;63818;37.134;-8.548;2024-01-27T07:06:07;102271.9;;;13.7;75.9
72124;BME280;63818;37.134;-8.548;2024-01-27T07:10:55;102265.2;;;13.7;76.3
72124;BME280;63818;37.134;-8.548;2024-01-27T07:15:49;102268.5;;;13.6;75.9
72124;BME280;63818;37.134;-8.548;2024-01-27T07:20:39;102277.1;;;13.7;76.0
72124;BME280;63818;37.134;-8.548;2024-01-27T07:25:27;102275.5;;;13.6;75.8
72124;BME280;63818;37.134;-8.548;2024-01-27T07:30:17;102280.5;;;13.6;75.5
72124;BME280;63818;37.134;-8.548;2024-01-27T07:35:15;102290.7;;;13.6;75.8
72124;BME280;63818;37.134;-8.548;2024-01-27T07:40:04;102295.0;;;13.6;75.7
72124;BME280;63818;37.134;-8.548;2024-01-27T07:44:54;102296.1;;;13.6;75.8
72124;BME280;63818;37.134;-8.548;2024-01-27T07:49:42;102300.1;;;13.6;75.4
72124;BME280;63818;37.134;-8.548;2024-01-27T07:54:32;102308.2;;;13.6;75.1
72124;BME280;63818;37.134;-8.548;2024-01-27T07:59:20;102307.3;;;13.7;75.3
72124;BME280;63818;37.134;-8.548;2024-01-27T08:04:09;102313.0;;;13.7;74.8
72124;BME280;63818;37.134;-8.548;2024-01-27T08:08:57;102314.9;;;13.7;74.8
72124;BME280;63818;37.134;-8.548;2024-01-27T08:13:45;102317.6;;;13.7;75.2
72124;BME280;63818;37.134;-8.548;2024-01-27T08:18:33;102325.4;;;13.7;75.1
72124;BME280;63818;37.134;-8.548;2024-01-27T08:23:23;102321.6;;;13.7;74.6
72124;BME280;63818;37.134;-8.548;2024-01-27T08:28:12;102328.3;;;13.7;74.7
72124;BME280;63818;37.134;-8.548;2024-01-27T08:33:04;102325.0;;;13.8;74.9
72124;BME280;63818;37.134;-8.548;2024-01-27T08:37:52;102329.2;;;13.9;75.0
72124;BME280;63818;37.134;-8.548;2024-01-27T08:42:40;102321.2;;;13.8;75.1
72124;BME280;63818;37.134;-8.548;2024-01-27T08:47:33;102327.6;;;13.8;75.2
72124;BME280;63818;37.134;-8.548;2024-01-27T08:52:23;102324.4;;;13.9;75.3
72124;BME280;63818;37.134;-8.548;2024-01-27T08:57:11;102342.7;;;13.9;75.3
72124;BME280;63818;37.134;-8.548;2024-01-27T09:01:59;102346.4;;;13.9;75.5
72124;BME280;63818;37.134;-8.548;2024-01-27T09:06:47;102349.4;;;14.0;75.7
72124;BME280;63818;37.134;-8.548;2024-01-27T09:11:38;102351.7;;;14.1;75.5
72124;BME280;63818;37.134;-8.548;2024-01-27T09:16:26;102357.3;;;14.1;75.5
72124;BME280;63818;37.134;-8.548;2024-01-27T09:21:14;102358.3;;;14.2;75.8
72124;BME280;63818;37.134;-8.548;2024-01-27T09:26:03;102357.6;;;14.2;75.9
72124;BME280;63818;37.134;-8.548;2024-01-27T09:30:51;102360.2;;;14.4;75.5
72124;BME280;63818;37.134;-8.548;2024-01-27T09:35:41;102352.1;;;14.4;75.5
72124;BME280;63818;37.134;-8.548;2024-01-27T09:40:29;102361.7;;;14.5;75.8
72124;BME280;63818;37.134;-8.548;2024-01-27T09:45:18;102366.8;;;14.5;76.0
72124;BME280;63818;37.134;-8.548;2024-01-27T09:50:08;102365.6;;;14.6;76.3
72124;BME280;63818;37.134;-8.548;2024-01-27T09:55:02;102360.1;;;14.6;77.1
72124;BME280;63818;37.134;-8.548;2024-01-27T09:59:53;102366.7;;;14.7;77.1
72124;BME280;63818;37.134;-8.548;2024-01-27T10:04:41;102373.2;;;14.8;77.7
72124;BME280;63818;37.134;-8.548;2024-01-27T10:09:33;102374.9;;;14.9;78.1
72124;BME280;63818;37.134;-8.548;2024-01-27T10:14:22;102374.3;;;14.9;78.7
72124;BME280;63818;37.134;-8.548;2024-01-27T10:19:19;102390.8;;;14.9;79.4
72124;BME280;63818;37.134;-8.548;2024-01-27T10:24:07;102387.5;;;14.9;79.6
72124;BME280;63818;37.134;-8.548;2024-01-27T10:28:56;102390.8;;;14.9;80.7
72124;BME280;63818;37.134;-8.548;2024-01-27T10:33:53;102389.3;;;15.0;81.1
72124;BME280;63818;37.134;-8.548;2024-01-27T10:38:41;102392.4;;;15.1;81.4
72124;BME280;63818;37.134;-8.548;2024-01-27T10:43:40;102395.5;;;15.2;82.3
72124;BME280;63818;37.134;-8.548;2024-01-27T10:48:42;102399.1;;;15.3;83.4
72124;BME280;63818;37.134;-8.548;2024-01-27T10:53:32;102411.1;;;15.4;84.8
72124;BME280;63818;37.134;-8.548;2024-01-27T10:58:23;102414.2;;;15.5;86.7
72124;BME280;63818;37.134;-8.548;2024-01-27T11:03:13;102415.2;;;15.7;89.6
72124;BME280;63818;37.134;-8.548;2024-01-27T11:08:02;102422.6;;;15.8;92.3
72124;BME280;63818;37.134;-8.548;2024-01-27T11:12:51;102428.0;;;15.9;93.9
72124;BME280;63818;37.134;-8.548;2024-01-27T11:22:35;102421.1;;;16.1;97.8
72124;BME280;63818;37.134;-8.548;2024-01-27T11:27:30;102417.0;;;16.1;98.2
72124;BME280;63818;37.134;-8.548;2024-01-27T11:32:20;102414.7;;;16.2;99.7
72124;BME280;63818;37.134;-8.548;2024-01-27T11:37:16;102413.8;;;16.2;100.0
72124;BME280;63818;37.134;-8.548;2024-01-27T11:42:08;102411.9;;;16.2;100.0
72124;BME280;63818;37.134;-8.548;2024-01-27T11:47:02;102403.7;;;16.3;100.0
72124;BME280;63818;37.134;-8.548;2024-01-27T11:51:50;102405.5;;;16.3;100.0
72124;BME280;63818;37.134;-8.548;2024-01-27T11:56:38;102398.9;;;16.3;100.0
72124;BME280;63818;37.134;-8.548;2024-01-27T12:01:28;102389.4;;;16.4;100.0
72124;BME280;63818;37.134;-8.548;2024-01-27T12:06:15;102381.2;;;16.4;100.0
72124;BME280;63818;37.134;-8.548;2024-01-27T12:11:06;102366.2;;;16.4;100.0
72124;BME280;63818;37.134;-8.548;2024-01-27T12:15:55;102350.6;;;16.5;100.0
72124;BME280;63818;37.134;-8.548;2024-01-27T12:20:46;102335.9;;;16.5;100.0
72124;BME280;63818;37.134;-8.548;2024-01-27T12:25:36;102318.2;;;16.7;100.0
72124;BME280;63818;37.134;-8.548;2024-01-27T12:30:24;102298.2;;;16.7;100.0
72124;BME280;63818;37.134;-8.548;2024-01-27T12:35:13;102299.7;;;16.8;100.0
72124;BME280;63818;37.134;-8.548;2024-01-27T12:44:54;102290.8;;;16.9;100.0
72124;BME280;63818;37.134;-8.548;2024-01-27T12:49:41;102282.8;;;16.9;100.0
72124;BME280;63818;37.134;-8.548;2024-01-27T12:54:35;102272.9;;;16.9;100.0
72124;BME280;63818;37.134;-8.548;2024-01-27T12:59:30;102268.2;;;16.9;100.0
72124;BME280;63818;37.134;-8.548;2024-01-27T13:04:19;102268.8;;;17.0;100.0
72124;BME280;63818;37.134;-8.548;2024-01-27T13:09:26;102262.5;;;17.0;100.0
72124;BME280;63818;37.134;-8.548;2024-01-27T13:14:15;102256.0;;;17.1;100.0
72124;BME280;63818;37.134;-8.548;2024-01-27T13:19:05;102236.4;;;17.2;99.3
72124;BME280;63818;37.134;-8.548;2024-01-27T13:23:53;102236.2;;;17.3;99.1
72124;BME280;63818;37.134;-8.548;2024-01-27T13:28:43;102224.1;;;17.3;99.7
72124;BME280;63818;37.134;-8.548;2024-01-27T13:33:31;102220.1;;;17.4;99.1
72124;BME280;63818;37.134;-8.548;2024-01-27T13:38:23;102207.5;;;17.4;98.5
72124;BME280;63818;37.134;-8.548;2024-01-27T13:43:11;102209.9;;;17.4;97.3
72124;BME280;63818;37.134;-8.548;2024-01-27T13:48:01;102205.6;;;17.5;97.2
72124;BME280;63818;37.134;-8.548;2024-01-27T13:52:49;102219.6;;;17.5;96.8
72124;BME280;63818;37.134;-8.548;2024-01-27T13:57:39;102211.9;;;17.6;96.6
72124;BME280;63818;37.134;-8.548;2024-01-27T14:02:27;102204.4;;;17.8;96.2
72124;BME280;63818;37.134;-8.548;2024-01-27T14:07:17;102200.0;;;17.7;95.8
72124;BME280;63818;37.134;-8.548;2024-01-27T14:12:06;102200.7;;;17.7;95.9
72124;BME280;63818;37.134;-8.548;2024-01-27T14:16:55;102198.0;;;17.6;95.7
72124;BME280;63818;37.134;-8.548;2024-01-27T14:21:45;102202.4;;;17.5;96.6
72124;BME280;63818;37.134;-8.548;2024-01-27T14:26:33;102207.5;;;17.5;98.0
72124;BME280;63818;37.134;-8.548;2024-01-27T14:31:21;102199.5;;;17.5;98.5
72124;BME280;63818;37.134;-8.548;2024-01-27T14:36:14;102198.1;;;17.6;98.7
72124;BME280;63818;37.134;-8.548;2024-01-27T14:41:04;102178.1;;;17.8;98.7
72124;BME280;63818;37.134;-8.548;2024-01-27T14:45:52;102168.7;;;18.0;98.4
72124;BME280;63818;37.134;-8.548;2024-01-27T14:50:45;102170.0;;;18.0;95.8
72124;BME280;63818;37.134;-8.548;2024-01-27T14:55:33;102164.7;;;17.9;95.0
72124;BME280;63818;37.134;-8.548;2024-01-27T15:00:24;102168.9;;;17.8;94.3
72124;BME280;63818;37.134;-8.548;2024-01-27T15:05:12;102166.3;;;17.8;95.0
72124;BME280;63818;37.134;-8.548;2024-01-27T15:10:00;102181.2;;;17.8;96.9
72124;BME280;63818;37.134;-8.548;2024-01-27T15:14:53;102187.6;;;17.7;97.9
72124;BME280;63818;37.134;-8.548;2024-01-27T15:19:42;102188.8;;;17.8;97.5
72124;BME280;63818;37.134;-8.548;2024-01-27T15:24:32;102191.7;;;17.9;94.9
72124;BME280;63818;37.134;-8.548;2024-01-27T15:29:20;102190.4;;;17.9;94.2
72124;BME280;63818;37.134;-8.548;2024-01-27T15:34:10;102183.7;;;18.3;91.5
72124;BME280;63818;37.134;-8.548;2024-01-27T15:38:58;102181.2;;;18.8;88.2
72124;BME280;63818;37.134;-8.548;2024-01-27T15:43:46;102181.2;;;19.0;86.4
72124;BME280;63818;37.134;-8.548;2024-01-27T15:48:34;102197.5;;;18.5;87.3
72124;BME280;63818;37.134;-8.548;2024-01-27T15:53:23;102203.3;;;18.3;89.4
72124;BME280;63818;37.134;-8.548;2024-01-27T15:58:10;102201.6;;;18.3;88.9
72124;BME280;63818;37.134;-8.548;2024-01-27T16:02:59;102195.9;;;18.1;88.8
72124;BME280;63818;37.134;-8.548;2024-01-27T16:07:47;102193.5;;;18.1;88.3
72124;BME280;63818;37.134;-8.548;2024-01-27T16:12:39;102192.8;;;18.2;88.1
72124;BME280;63818;37.134;-8.548;2024-01-27T16:17:30;102190.7;;;18.4;87.0
72124;BME280;63818;37.134;-8.548;2024-01-27T16:22:17;102186.9;;;18.2;87.3
72124;BME280;63818;37.134;-8.548;2024-01-27T16:32:05;102195.9;;;17.9;90.5
72124;BME280;63818;37.134;-8.548;2024-01-27T16:36:58;102200.0;;;17.7;91.8
72124;BME280;63818;37.134;-8.548;2024-01-27T16:41:45;102199.7;;;17.7;92.8
72124;BME280;63818;37.134;-8.548;2024-01-27T16:46:33;102201.6;;;17.6;93.1
72124;BME280;63818;37.134;-8.548;2024-01-27T16:51:22;102197.2;;;17.5;93.1
72124;BME280;63818;37.134;-8.548;2024-01-27T16:56:17;102200.9;;;17.4;93.3
72124;BME280;63818;37.134;-8.548;2024-01-27T17:01:07;102196.0;;;17.4;92.8
72124;BME280;63818;37.134;-8.548;2024-01-27T17:05:55;102192.7;;;17.3;90.7
72124;BME280;63818;37.134;-8.548;2024-01-27T17:10:46;102195.9;;;17.2;89.8
72124;BME280;63818;37.134;-8.548;2024-01-27T17:15:34;102193.8;;;17.2;88.5
72124;BME280;63818;37.134;-8.548;2024-01-27T17:20:24;102193.2;;;17.1;87.3
72124;BME280;63818;37.134;-8.548;2024-01-27T17:25:15;102200.2;;;17.1;86.9
72124;BME280;63818;37.134;-8.548;2024-01-27T17:30:04;102208.2;;;17.1;86.5
72124;BME280;63818;37.134;-8.548;2024-01-27T17:34:54;102206.1;;;17.1;86.1
72124;BME280;63818;37.134;-8.548;2024-01-27T17:39:44;102217.3;;;17.0;86.3
72124;BME280;63818;37.134;-8.548;2024-01-27T17:44:33;102223.8;;;17.0;86.1
72124;BME280;63818;37.134;-8.548;2024-01-27T17:49:29;102222.0;;;17.0;85.6
72124;BME280;63818;37.134;-8.548;2024-01-27T17:54:19;102220.5;;;17.0;85.2
72124;BME280;63818;37.134;-8.548;2024-01-27T17:59:07;102220.0;;;17.0;85.0
72124;BME280;63818;37.134;-8.548;2024-01-27T18:03:56;102230.0;;;17.0;84.2
72124;BME280;63818;37.134;-8.548;2024-01-27T18:08:44;102230.8;;;17.0;84.1
72124;BME280;63818;37.134;-8.548;2024-01-27T18:13:38;102232.7;;;17.0;84.2
72124;BME280;63818;37.134;-8.548;2024-01-27T18:18:26;102238.0;;;16.9;83.6
72124;BME280;63818;37.134;-8.548;2024-01-27T18:23:14;102239.9;;;16.9;83.8
72124;BME280;63818;37.134;-8.548;2024-01-27T18:28:02;102235.6;;;16.9;83.8
72124;BME280;63818;37.134;-8.548;2024-01-27T18:32:50;102243.7;;;16.9;83.7
72124;BME280;63818;37.134;-8.548;2024-01-27T18:37:46;102246.4;;;16.9;83.5
72124;BME280;63818;37.134;-8.548;2024-01-27T18:42:36;102253.8;;;16.9;84.1
72124;BME280;63818;37.134;-8.548;2024-01-27T18:47:24;102257.3;;;16.9;84.5
72124;BME280;63818;37.134;-8.548;2024-01-27T18:52:12;102266.2;;;16.9;84.5
72124;BME280;63818;37.134;-8.548;2024-01-27T18:57:02;102265.5;;;16.9;84.8
72124;BME280;63818;37.134;-8.548;2024-01-27T19:01:50;102270.9;;;16.9;84.8
72124;BME280;63818;37.134;-8.548;2024-01-27T19:06:44;102272.0;;;16.9;85.4
72124;BME280;63818;37.134;-8.548;2024-01-27T19:11:32;102270.9;;;16.9;85.6
72124;BME280;63818;37.134;-8.548;2024-01-27T19:16:25;102271.2;;;16.9;86.1
72124;BME280;63818;37.134;-8.548;2024-01-27T19:21:22;102276.1;;;16.9;86.1
72124;BME280;63818;37.134;-8.548;2024-01-27T19:26:12;102279.2;;;16.9;86.2
72124;BME280;63818;37.134;-8.548;2024-01-27T19:31:00;102274.8;;;16.8;86.4
72124;BME280;63818;37.134;-8.548;2024-01-27T19:35:48;102284.1;;;16.8;86.8
72124;BME280;63818;37.134;-8.548;2024-01-27T19:40:38;102285.5;;;16.8;86.1
72124;BME280;63818;37.134;-8.548;2024-01-27T19:45:26;102290.2;;;16.8;86.1
72124;BME280;63818;37.134;-8.548;2024-01-27T19:50:14;102303.7;;;16.8;85.9
72124;BME280;63818;37.134;-8.548;2024-01-27T19:55:07;102302.1;;;16.8;86.1
72124;BME280;63818;37.134;-8.548;2024-01-27T20:00:00;102307.5;;;16.8;86.2
72124;BME280;63818;37.134;-8.548;2024-01-27T20:04:48;102297.8;;;16.8;86.0
72124;BME280;63818;37.134;-8.548;2024-01-27T20:09:36;102308.7;;;16.8;86.5
72124;BME280;63818;37.134;-8.548;2024-01-27T20:14:29;102307.0;;;16.8;86.5
72124;BME280;63818;37.134;-8.548;2024-01-27T20:19:17;102303.8;;;16.8;85.6
72124;BME280;63818;37.134;-8.548;2024-01-27T20:24:08;102296.5;;;16.8;85.0
72124;BME280;63818;37.134;-8.548;2024-01-27T20:28:59;102282.6;;;16.8;84.6
72124;BME280;63818;37.134;-8.548;2024-01-27T20:33:50;102280.2;;;16.8;83.8
72124;BME280;63818;37.134;-8.548;2024-01-27T20:38:38;102288.3;;;16.8;83.8
72124;BME280;63818;37.134;-8.548;2024-01-27T20:43:26;102281.8;;;16.8;-1.0
72124;BME280;63818;37.134;-8.548;2024-01-27T20:53:07;102284.2;;;16.8;83.4
72124;BME280;63818;37.134;-8.548;2024-01-27T20:57:58;102285.8;;;16.8;83.2
72124;BME280;63818;37.134;-8.548;2024-01-27T21:02:46;102288.5;;;16.8;83.2
72124;BME280;63818;37.134;-8.548;2024-01-27T21:07:35;102283.4;;;16.8;83.4
72124;BME280;63818;37.134;-8.548;2024-01-27T21:12:25;102289.2;;;16.8;82.8
72124;BME280;63818;37.134;-8.548;2024-01-27T21:17:13;102293.8;;;16.8;83.0
72124;BME280;63818;37.134;-8.548;2024-01-27T21:22:04;102287.5;;;16.8;82.6
72124;BME280;63818;37.134;-8.548;2024-01-27T21:26:53;102285.6;;;16.8;82.9
72124;BME280;63818;37.134;-8.548;2024-01-27T21:31:41;102283.2;;;16.7;82.6
72124;BME280;63818;37.134;-8.548;2024-01-27T21:36:30;102286.0;;;16.7;82.9
72124;BME280;63818;37.134;-8.548;2024-01-27T21:41:19;102280.0;;;16.7;82.5
72124;BME280;63818;37.134;-8.548;2024-01-27T21:51:02;102283.9;;;16.7;82.6
72124;BME280;63818;37.134;-8.548;2024-01-27T21:55:52;102288.2;;;16.7;82.6
72124;BME280;63818;37.134;-8.548;2024-01-27T22:00:40;102285.0;;;16.7;82.4
72124;BME280;63818;37.134;-8.548;2024-01-27T22:05:30;102273.6;;;16.7;82.9
72124;BME280;63818;37.134;-8.548;2024-01-27T22:10:18;102275.5;;;16.7;82.6
72124;BME280;63818;37.134;-8.548;2024-01-27T22:15:08;102273.9;;;16.7;82.8
72124;BME280;63818;37.134;-8.548;2024-01-27T22:19:57;102281.3;;;16.7;82.8
72124;BME280;63818;37.134;-8.548;2024-01-27T22:24:46;102285.1;;;16.6;83.0
72124;BME280;63818;37.134;-8.548;2024-01-27T22:29:36;102284.3;;;16.6;83.0
72124;BME280;63818;37.134;-8.548;2024-01-27T22:34:28;102280.8;;;16.6;83.3
72124;BME280;63818;37.134;-8.548;2024-01-27T22:39:17;102280.8;;;16.6;83.7
72124;BME280;63818;37.134;-8.548;2024-01-27T22:44:05;102280.8;;;16.6;83.9
72124;BME280;63818;37.134;-8.548;2024-01-27T22:48:58;102279.7;;;16.6;83.7
72124;BME280;63818;37.134;-8.548;2024-01-27T22:53:46;102285.1;;;16.6;84.0
72124;BME280;63818;37.134;-8.548;2024-01-27T22:58:36;102277.2;;;16.6;84.2
72124;BME280;63818;37.134;-8.548;2024-01-27T23:03:25;102285.9;;;16.6;84.2
72124;BME280;63818;37.134;-8.548;2024-01-27T23:08:13;102284.3;;;16.6;84.5
72124;BME280;63818;37.134;-8.548;2024-01-27T23:13:03;102272.6;;;16.6;84.1
72124;BME280;63818;37.134;-8.548;2024-01-27T23:17:51;102269.1;;;16.6;84.4
72124;BME280;63818;37.134;-8.548;2024-01-27T23:22:39;102265.6;;;16.6;84.1
72124;BME280;63818;37.134;-8.548;2024-01-27T23:32:30;102264.1;;;16.6;83.8
72124;BME280;63818;37.134;-8.548;2024-01-27T23:37:18;102266.5;;;16.6;-1.0
72124;BME280;63818;37.134;-8.548;2024-01-27T23:42:06;102260.8;;;16.6;83.3
72124;BME280;63818;37.134;-8.548;2024-01-27T23:46:57;102261.6;;;16.6;83.3
72124;BME280;63818;37.134;-8.548;2024-01-27T23:51:45;102268.9;;;16.6;83.4
72124;BME280;63818;37.134;-8.548;2024-01-27T23:56:35;102256.2;;;16.6;83.3
